Portada
METAR-TAF:

METAR-TAF

Aeroports :

Hagåtña, Guam, Estats Units d'Amèrica

latitud: 13-29N, longitud: 144-48E, altitud: 91 m

Observació

L'informe es va fer fa 8 hores i 21 minuts, a les 07:54 UTC
Vent 11 kt del Est
Temperatura 27°C
Humitat 79%
Pressió 1012 hPa
Visibilitat: 16.1 km
Cel cobert a una alçada de 4700 ft

METAR: PGUM 280754Z 09011KT 10SM OVC047 27/23 A2987 RMK AO2 SLP107 T02720233

Hora: 02:15 (16:15 UTC)

Pronòstic

L'informe es va fer fa 4 hores i 48 minuts, a les 11:27 UTC
Pronòstic vàlid del 28 a les 12 UTC al 29 a les 18 UTC
Vent 11 kt del Est
Visibilitat: 10 km
Núvols disperses a una alçada de 2000 ft
Núvols disperses a una alçada de 5000 ft
xàfecs en les proximitats

TAF: PGUM 281127Z 2812/2918 09011KT P6SM VCSH SCT020 SCT050

Observacions i pronòstics meteorològics de més de 4000 aeroports (METAR i TAF).

Les estacions disponibles són els punts grocs i vermells al mapa.

Posi el ratolí al punt desitjat per veure el nom de l'estació.

Feu clic per veure les observacions i els pronòstics meteorològics.

Per canviar el mapa: feu clic els botons verds amb una creu de color negre per apropar; al botó verd amb un guió per allunyar la imatge; o en les fletxes verdes per a mapes adjacents.


METAR-TAF: